Eminence, Kentucky
Current Conditions -  °F | °C
As of 6:53 AM on Thursday 29 Jan 2015 (Local Time) from KFFT Reporting Station
Light Rain Light Rain  
Wind Chill: 31°   Ceiling: 6500
Heat Index: 40°   Visibility: 10mi
Dew Point: 29°   Wind: 16mph
Humidity: 65%   Direction: 180°S
Pressure: 29.93"   Gusts: 22mph
Location:  38.37°N, 85.18°W
Report Text: KFFT 291153Z AUTO 18014G19KT 10SM -RA OVC065 04/M02 A2993 RMK AO2 RAE13B33UPB13E22 SLP140 P0003 60004 70004 T00441017 10044 20006 58029
Loading
Personal Weather Stations






























Interactive Weather Map New forecast layout! Learn more

10-Day Weather Forecast

Advertisements
Track Severe Weather on mobile